Blue Earth, Minnesota
Current Conditions -  °F | °C
As of 1:35 PM on Saturday 25 Oct 2014 (Local Time) from KFRM Reporting Station
Clear Clear  
Wind Chill: 64°   Ceiling: Unl
Heat Index: 64°   Visibility: 10mi
Dew Point: -8°   Wind: 14mph
Humidity: 5%   Direction: 320°NW
Pressure: 30.11"   Gusts: NA
Location:  43.64°N, 94.1°W
Report Text: KFRM 251835Z AUTO 32012KT 10SM CLR 18/M22 A3011 RMK AO1
Loading
Personal Weather Stations






























Interactive Weather Map
Tropical Storm Tracking
New forecast layout! Learn more

10-Day Weather Forecast

Advertisements
Track Severe Weather on mobile